createdAt,value
2022-08-07T00:00:18.685Z,60.30
2022-08-07T00:02:46.584Z,60.50
2022-08-07T00:05:13.587Z,60.70
2022-08-07T00:07:41.627Z,60.80
2022-08-07T00:10:26.136Z,61.10
2022-08-07T00:13:00.224Z,61.30
2022-08-07T00:15:38.123Z,61.50
2022-08-07T00:18:19.282Z,61.80
2022-08-07T00:20:51.354Z,62.00
2022-08-07T00:23:21.460Z,62.30
2022-08-07T00:25:58.230Z,62.40
2022-08-07T00:28:34.122Z,62.50
2022-08-07T00:31:12.618Z,62.60
2022-08-07T00:33:43.621Z,62.60
2022-08-07T00:36:14.560Z,62.60
2022-08-07T00:38:44.223Z,62.70
2022-08-07T00:41:53.501Z,62.90
2022-08-07T00:44:21.955Z,63.10
2022-08-07T00:46:54.042Z,62.90
2022-08-07T00:50:16.760Z,63.10
2022-08-07T00:52:10.084Z,63.40
2022-08-07T00:54:40.763Z,63.50
2022-08-07T00:57:09.231Z,63.60
2022-08-07T00:59:37.486Z,63.70
2022-08-07T01:02:13.947Z,64.60
2022-08-07T01:04:53.978Z,64.20
2022-08-07T01:07:27.683Z,64.20
2022-08-07T01:10:05.692Z,64.40
2022-08-07T01:12:37.777Z,65.30
2022-08-07T01:15:07.267Z,64.70
2022-08-07T01:17:39.960Z,64.90
2022-08-07T01:20:17.162Z,64.80
2022-08-07T01:22:54.110Z,65.00
2022-08-07T01:25:54.154Z,65.00
2022-08-07T01:28:16.386Z,65.00
2022-08-07T01:30:45.268Z,65.00
2022-08-07T01:33:15.544Z,65.10
2022-08-07T01:35:53.281Z,65.20
2022-08-07T01:38:26.088Z,65.30
2022-08-07T01:41:02.017Z,65.30
2022-08-07T01:43:34.638Z,65.50
2022-08-07T01:46:08.297Z,65.60
2022-08-07T01:48:46.588Z,65.60
2022-08-07T01:52:02.471Z,65.80
2022-08-07T01:54:21.853Z,65.80
2022-08-07T01:57:08.398Z,65.80
2022-08-07T01:59:57.182Z,66.00
2022-08-07T02:03:19.135Z,66.40
2022-08-07T02:05:47.983Z,66.40
2022-08-07T02:08:27.859Z,66.30
2022-08-07T02:11:57.740Z,66.30
2022-08-07T02:14:35.764Z,66.80
2022-08-07T02:17:13.195Z,66.50
2022-08-07T02:20:05.478Z,66.70
2022-08-07T02:22:41.089Z,67.10
2022-08-07T02:25:13.826Z,67.10
2022-08-07T02:27:52.121Z,66.90
2022-08-07T02:30:23.791Z,66.70
2022-08-07T02:33:08.928Z,67.00
2022-08-07T02:36:29.620Z,67.30
2022-08-07T02:38:33.344Z,67.50
2022-08-07T02:41:04.855Z,67.70
2022-08-07T02:43:39.500Z,68.00
2022-08-07T02:46:08.620Z,68.40
2022-08-07T02:48:38.386Z,68.40
2022-08-07T02:51:28.817Z,68.50
2022-08-07T02:54:01.701Z,68.70
2022-08-07T02:56:31.653Z,68.70
2022-08-07T02:59:03.939Z,68.80
2022-08-07T03:01:41.471Z,68.80
2022-08-07T03:04:15.758Z,68.90
2022-08-07T03:06:46.163Z,68.90
2022-08-07T03:09:42.108Z,69.00
2022-08-07T03:12:08.111Z,69.20
2022-08-07T03:14:52.435Z,69.20
2022-08-07T03:17:25.350Z,69.30
2022-08-07T03:20:31.776Z,69.60
2022-08-07T03:22:59.546Z,70.10
2022-08-07T03:25:35.523Z,70.10
2022-08-07T03:28:36.902Z,70.40
2022-08-07T03:31:26.134Z,70.40
2022-08-07T03:34:01.019Z,70.50
2022-08-07T03:36:32.565Z,70.50
2022-08-07T03:39:05.831Z,70.60
2022-08-07T03:41:41.979Z,70.90
2022-08-07T03:44:10.788Z,70.90
2022-08-07T03:47:11.215Z,70.70
2022-08-07T03:49:30.921Z,70.50
2022-08-07T03:52:01.988Z,70.80
2022-08-07T03:54:35.289Z,71.10
2022-08-07T03:58:32.890Z,71.20
2022-08-07T04:00:10.585Z,71.30
2022-08-07T04:02:47.466Z,71.40
2022-08-07T04:05:39.843Z,71.50
2022-08-07T04:08:16.069Z,71.50
2022-08-07T04:10:54.446Z,71.70
2022-08-07T04:14:10.510Z,71.80
2022-08-07T04:16:30.147Z,71.90
2022-08-07T04:19:04.074Z,71.90
2022-08-07T04:21:58.775Z,72.00
2022-08-07T04:24:34.144Z,72.30
2022-08-07T04:27:20.458Z,72.20
2022-08-07T04:30:02.173Z,72.30
2022-08-07T04:32:58.386Z,72.40
2022-08-07T04:35:28.671Z,72.40
2022-08-07T04:38:13.033Z,72.80
2022-08-07T04:40:51.671Z,73.20
2022-08-07T04:44:10.373Z,73.10
2022-08-07T04:47:03.974Z,73.40
2022-08-07T04:49:47.310Z,73.30
2022-08-07T04:52:56.312Z,73.00
2022-08-07T04:58:14.297Z,73.10
2022-08-07T04:59:17.450Z,72.80
2022-08-07T05:01:47.013Z,72.80
2022-08-07T05:04:47.169Z,73.00
2022-08-07T05:07:20.465Z,73.40
2022-08-07T05:10:28.448Z,73.60
2022-08-07T05:14:45.704Z,73.70
2022-08-07T05:15:55.153Z,73.90
2022-08-07T05:18:27.049Z,74.00
2022-08-07T05:21:03.834Z,74.10
2022-08-07T05:23:57.418Z,74.10
2022-08-07T05:26:28.179Z,74.20
2022-08-07T05:29:04.711Z,73.90
2022-08-07T05:31:38.412Z,73.80
2022-08-07T05:34:15.012Z,73.70
2022-08-07T05:36:52.706Z,73.40
2022-08-07T05:40:14.398Z,73.40
2022-08-07T05:42:33.236Z,73.20
2022-08-07T05:45:14.080Z,73.00
2022-08-07T05:48:01.777Z,72.60
2022-08-07T05:50:42.737Z,72.70
2022-08-07T05:54:12.901Z,72.50
2022-08-07T05:56:01.895Z,72.30
2022-08-07T05:58:37.081Z,72.10
2022-08-07T06:01:10.732Z,71.80
2022-08-07T06:03:57.153Z,71.50
2022-08-07T06:06:33.212Z,71.50
2022-08-07T06:09:05.019Z,71.30
2022-08-07T06:11:37.762Z,71.10
2022-08-07T06:14:12.502Z,70.90
2022-08-07T06:16:45.840Z,70.80
2022-08-07T06:19:52.192Z,70.40
2022-08-07T06:22:14.628Z,70.10
2022-08-07T06:24:58.542Z,69.80
2022-08-07T06:28:00.636Z,69.50
2022-08-07T06:30:45.425Z,69.20
2022-08-07T06:33:19.315Z,68.80
2022-08-07T06:36:12.043Z,68.40
2022-08-07T06:38:58.453Z,68.00
2022-08-07T06:42:01.923Z,67.70
2022-08-07T06:45:03.772Z,67.30
2022-08-07T06:47:44.338Z,66.80
2022-08-07T06:50:18.947Z,66.60
2022-08-07T06:52:52.906Z,66.30
2022-08-07T06:55:53.908Z,66.00
2022-08-07T06:58:21.454Z,65.60
2022-08-07T07:00:58.981Z,65.30
2022-08-07T07:03:39.473Z,64.80
2022-08-07T07:06:11.638Z,64.40
2022-08-07T07:08:39.919Z,63.80
2022-08-07T07:12:07.912Z,63.30
2022-08-07T07:14:44.427Z,62.80
2022-08-07T07:17:18.703Z,62.80
2022-08-07T07:19:57.993Z,62.20
2022-08-07T07:22:36.972Z,62.00
2022-08-07T07:26:32.783Z,61.50
2022-08-07T07:28:42.395Z,61.20
2022-08-07T07:31:12.505Z,60.70
2022-08-07T07:33:55.022Z,60.40
2022-08-07T07:36:32.286Z,60.30
2022-08-07T07:39:02.402Z,59.90
2022-08-07T07:42:13.693Z,59.40
2022-08-07T07:44:41.899Z,58.90
2022-08-07T07:47:22.676Z,58.60
2022-08-07T07:50:35.669Z,58.00
2022-08-07T07:52:46.896Z,57.50
2022-08-07T07:55:17.160Z,57.10
2022-08-07T07:57:52.907Z,56.60
2022-08-07T08:00:29.382Z,56.20
2022-08-07T08:03:16.334Z,55.70
2022-08-07T08:05:54.856Z,55.50
2022-08-07T08:08:35.339Z,54.80
2022-08-07T08:11:13.433Z,54.50
2022-08-07T08:13:53.695Z,54.10
2022-08-07T08:16:29.942Z,53.70
2022-08-07T08:19:00.499Z,53.40
2022-08-07T08:22:07.760Z,53.40
2022-08-07T08:25:18.690Z,53.20
2022-08-07T08:28:03.616Z,52.60
2022-08-07T08:30:55.544Z,52.60
2022-08-07T08:33:28.799Z,52.20
2022-08-07T08:36:02.635Z,52.00
2022-08-07T08:38:41.984Z,52.00
2022-08-07T08:41:15.664Z,51.70
2022-08-07T08:44:01.740Z,51.50
2022-08-07T08:47:03.132Z,51.30
2022-08-07T08:50:04.531Z,51.20
2022-08-07T08:52:40.889Z,51.00
2022-08-07T08:55:54.532Z,50.70
2022-08-07T08:58:43.616Z,50.20
2022-08-07T09:01:49.718Z,50.00
2022-08-07T09:04:44.480Z,49.70
2022-08-07T09:07:22.951Z,49.60
2022-08-07T09:10:07.921Z,49.70
2022-08-07T09:12:34.724Z,49.40
2022-08-07T09:16:23.249Z,49.40
2022-08-07T09:18:53.293Z,48.90
2022-08-07T09:22:09.875Z,48.90
2022-08-07T09:24:58.619Z,48.50
2022-08-07T09:28:00.185Z,48.30
2022-08-07T09:31:25.896Z,48.10
2022-08-07T09:34:10.939Z,47.90
2022-08-07T09:36:49.652Z,47.70
2022-08-07T09:39:53.185Z,47.50
2022-08-07T09:42:33.620Z,47.00
2022-08-07T09:47:25.740Z,47.60
2022-08-07T09:48:55.960Z,46.30
2022-08-07T09:52:15.655Z,46.20
2022-08-07T09:54:46.664Z,46.20
2022-08-07T09:57:19.793Z,45.70
2022-08-07T10:00:08.717Z,45.20
2022-08-07T10:04:03.768Z,44.90
2022-08-07T10:06:49.137Z,44.20
2022-08-07T10:09:42.768Z,43.70
2022-08-07T10:12:28.638Z,42.90
2022-08-07T10:15:19.025Z,42.50
2022-08-07T10:18:06.756Z,42.30
2022-08-07T10:21:50.392Z,41.70
2022-08-07T10:24:22.773Z,40.80
2022-08-07T10:26:56.744Z,40.00
2022-08-07T10:29:30.446Z,39.50
2022-08-07T10:32:36.733Z,38.60
2022-08-07T10:35:56.533Z,38.10
2022-08-07T10:38:49.491Z,38.00
2022-08-07T10:41:52.844Z,37.20
2022-08-07T10:44:38.355Z,37.30
2022-08-07T10:47:14.157Z,36.40
2022-08-07T10:49:50.807Z,36.30
2022-08-07T10:52:52.800Z,36.00
2022-08-07T10:55:36.827Z,36.20
2022-08-07T10:58:36.449Z,36.00
2022-08-07T11:01:35.212Z,35.80
2022-08-07T11:04:37.511Z,35.90
2022-08-07T11:07:24.716Z,35.80
2022-08-07T11:10:12.307Z,35.60
2022-08-07T11:13:01.686Z,35.20
2022-08-07T11:15:33.142Z,35.00
2022-08-07T11:18:10.084Z,35.00
2022-08-07T11:20:56.827Z,34.60
2022-08-07T11:23:45.398Z,34.40
2022-08-07T11:26:21.117Z,33.30
2022-08-07T11:28:57.609Z,32.90
2022-08-07T11:31:55.812Z,32.60
2022-08-07T11:34:36.861Z,32.40
2022-08-07T11:37:11.728Z,32.30
2022-08-07T11:40:00.942Z,32.20
2022-08-07T11:42:53.204Z,32.10
2022-08-07T11:45:50.235Z,31.60
2022-08-07T11:49:51.170Z,31.40
2022-08-07T11:56:14.046Z,31.20
2022-08-07T12:00:10.290Z,30.80
2022-08-07T12:02:52.212Z,30.50
2022-08-07T12:05:49.571Z,30.10
2022-08-07T12:08:53.644Z,30.00
2022-08-07T12:11:32.591Z,29.90
2022-08-07T12:14:16.231Z,29.80
2022-08-07T12:16:47.873Z,29.50
2022-08-07T12:20:02.652Z,29.40
2022-08-07T12:22:56.305Z,29.00
2022-08-07T12:26:05.459Z,28.60
2022-08-07T12:29:04.349Z,29.10
2022-08-07T12:32:12.635Z,28.60
2022-08-07T12:34:42.133Z,28.40
2022-08-07T12:37:23.512Z,28.30
2022-08-07T12:39:59.042Z,28.30
2022-08-07T12:42:32.066Z,27.90
2022-08-07T12:45:07.078Z,27.80
2022-08-07T12:47:51.623Z,27.60
2022-08-07T12:50:50.729Z,27.40
2022-08-07T12:53:18.993Z,27.30
2022-08-07T12:56:02.504Z,27.30
2022-08-07T12:58:39.549Z,27.10
2022-08-07T13:01:27.965Z,26.90
2022-08-07T13:04:09.813Z,26.90
2022-08-07T13:08:12.283Z,26.90
2022-08-07T13:11:01.060Z,26.70
2022-08-07T13:14:14.110Z,26.60
2022-08-07T13:17:06.328Z,26.50
2022-08-07T13:19:53.567Z,26.50
2022-08-07T13:22:36.034Z,26.50
2022-08-07T13:25:06.772Z,26.20
2022-08-07T13:28:11.499Z,26.10
2022-08-07T13:31:02.017Z,26.10
2022-08-07T13:34:30.120Z,26.10
2022-08-07T13:36:52.529Z,26.10
2022-08-07T13:40:32.716Z,26.00
2022-08-07T13:42:39.911Z,25.80
2022-08-07T13:45:20.880Z,25.80
2022-08-07T13:48:05.551Z,25.70
2022-08-07T13:50:44.950Z,25.50
2022-08-07T13:54:00.160Z,25.30
2022-08-07T13:56:40.980Z,25.40
2022-08-07T13:59:21.956Z,25.40
2022-08-07T14:02:07.754Z,25.30
2022-08-07T14:04:54.422Z,25.00
2022-08-07T14:07:24.532Z,25.00
2022-08-07T14:10:12.632Z,25.00
2022-08-07T14:12:55.944Z,25.20
2022-08-07T14:15:35.073Z,25.20
2022-08-07T14:18:29.961Z,25.20
2022-08-07T14:22:03.389Z,25.10
2022-08-07T14:24:22.977Z,25.00
2022-08-07T14:27:00.105Z,25.00
2022-08-07T14:30:07.509Z,24.90
2022-08-07T14:32:29.806Z,24.90
2022-08-07T14:35:04.175Z,24.80
2022-08-07T14:37:36.105Z,24.60
2022-08-07T14:40:26.369Z,24.70
2022-08-07T14:43:00.790Z,24.70
2022-08-07T14:45:54.634Z,24.70
2022-08-07T14:48:27.147Z,24.80
2022-08-07T14:52:03.278Z,24.60
2022-08-07T14:57:58.684Z,24.30
2022-08-07T15:00:38.463Z,24.10
2022-08-07T15:03:17.449Z,24.30
2022-08-07T15:05:54.910Z,24.40
2022-08-07T15:12:25.583Z,24.50
2022-08-07T15:15:09.273Z,24.40
2022-08-07T15:17:59.539Z,24.50
2022-08-07T15:20:55.684Z,24.60
2022-08-07T15:25:14.460Z,24.60
2022-08-07T15:26:28.695Z,24.60
2022-08-07T15:30:04.746Z,24.50
2022-08-07T15:32:00.727Z,24.30
2022-08-07T15:34:35.623Z,24.60
2022-08-07T15:37:08.234Z,25.00
2022-08-07T15:40:20.482Z,25.30
2022-08-07T15:43:10.901Z,25.40
2022-08-07T15:46:05.750Z,25.30
2022-08-07T15:49:03.781Z,25.40
2022-08-07T15:54:39.376Z,25.70
2022-08-07T15:57:28.183Z,26.40
2022-08-07T15:59:59.961Z,26.10
2022-08-07T16:02:46.703Z,26.30
2022-08-07T16:05:20.365Z,26.60
2022-08-07T16:08:30.817Z,27.00
2022-08-07T16:11:40.104Z,27.50
2022-08-07T16:14:34.930Z,28.00
2022-08-07T16:17:16.156Z,28.40
2022-08-07T16:20:37.225Z,28.60
2022-08-07T16:23:52.970Z,28.80
2022-08-07T16:26:30.906Z,29.00
2022-08-07T16:30:09.994Z,29.20
2022-08-07T16:32:35.326Z,29.40
2022-08-07T16:35:52.052Z,29.50
2022-08-07T16:38:09.597Z,29.80
2022-08-07T16:41:02.231Z,29.80
2022-08-07T16:44:06.157Z,30.00
2022-08-07T16:47:04.768Z,30.10
2022-08-07T16:50:27.932Z,30.40
2022-08-07T16:53:47.928Z,30.50
2022-08-07T16:56:06.079Z,30.70
2022-08-07T16:59:14.528Z,30.70
2022-08-07T17:06:26.568Z,31.20
2022-08-07T17:09:14.251Z,31.20
2022-08-07T17:12:44.501Z,31.50
2022-08-07T17:15:15.613Z,31.70
2022-08-07T17:17:48.934Z,31.90
2022-08-07T17:20:41.720Z,32.00
2022-08-07T17:23:20.705Z,32.10
2022-08-07T17:26:23.363Z,32.20
2022-08-07T17:30:13.117Z,32.40
2022-08-07T17:32:31.237Z,32.50
2022-08-07T17:35:51.138Z,32.60
2022-08-07T17:38:34.335Z,32.70
2022-08-07T17:42:02.780Z,32.70
2022-08-07T17:44:45.646Z,32.80
2022-08-07T17:47:38.422Z,32.90
2022-08-07T17:50:22.080Z,32.80
2022-08-07T17:52:55.480Z,33.40
2022-08-07T17:56:06.116Z,32.80
2022-08-07T17:58:40.239Z,32.90
2022-08-07T18:01:28.901Z,33.00
2022-08-07T18:04:34.780Z,33.10
2022-08-07T18:07:22.556Z,32.90
2022-08-07T18:10:07.587Z,33.00
2022-08-07T18:13:09.756Z,33.00
2022-08-07T18:16:02.970Z,33.10
2022-08-07T18:21:02.544Z,33.10
2022-08-07T18:21:53.473Z,33.10
2022-08-07T18:24:33.482Z,33.20
2022-08-07T18:27:38.409Z,33.30
2022-08-07T18:30:32.573Z,33.40
2022-08-07T18:33:15.606Z,33.40
2022-08-07T18:35:55.758Z,33.60
2022-08-07T18:40:05.791Z,33.80
2022-08-07T18:42:13.046Z,34.00
2022-08-07T18:45:44.168Z,33.90
2022-08-07T18:48:01.435Z,34.10
2022-08-07T18:50:48.334Z,34.20
2022-08-07T18:53:22.030Z,34.40
2022-08-07T18:56:30.820Z,34.30
2022-08-07T18:59:47.159Z,34.50
2022-08-07T19:02:36.658Z,34.60
2022-08-07T19:06:01.964Z,34.80
2022-08-07T19:08:30.851Z,34.80
2022-08-07T19:11:35.062Z,34.90
2022-08-07T19:14:19.975Z,35.00
2022-08-07T19:17:07.092Z,35.20
2022-08-07T19:23:57.154Z,35.60
2022-08-07T19:26:23.122Z,35.70
2022-08-07T19:30:55.190Z,35.90
2022-08-07T19:32:17.082Z,36.20
2022-08-07T19:34:55.231Z,36.20
2022-08-07T19:37:23.416Z,36.20
2022-08-07T19:40:31.904Z,36.40
2022-08-07T19:43:08.720Z,36.70
2022-08-07T19:46:04.874Z,36.90
2022-08-07T19:48:42.721Z,37.10
2022-08-07T19:51:51.924Z,37.40
2022-08-07T19:54:31.864Z,37.70
2022-08-07T19:58:03.350Z,37.70
2022-08-07T19:59:58.377Z,37.90
2022-08-07T20:02:31.510Z,38.10
2022-08-07T20:05:02.727Z,38.40
2022-08-07T20:07:47.962Z,38.50
2022-08-07T20:10:37.886Z,38.70
2022-08-07T20:13:23.671Z,38.90
2022-08-07T20:15:54.870Z,39.00
2022-08-07T20:18:32.807Z,39.30
2022-08-07T20:21:22.101Z,39.50
2022-08-07T20:24:03.802Z,39.80
2022-08-07T20:26:44.748Z,40.10
2022-08-07T20:29:16.923Z,40.30
2022-08-07T20:32:05.679Z,40.50
2022-08-07T20:34:50.834Z,40.70
2022-08-07T20:37:33.745Z,40.90
2022-08-07T20:43:57.416Z,41.60
2022-08-07T20:46:33.551Z,41.70
2022-08-07T20:49:57.799Z,42.20
2022-08-07T20:52:50.740Z,42.60
2022-08-07T20:55:23.969Z,43.20
2022-08-07T20:58:08.827Z,43.40
2022-08-07T21:00:58.555Z,44.00
2022-08-07T21:03:27.410Z,44.40
2022-08-07T21:06:22.282Z,44.50
2022-08-07T21:09:01.111Z,45.00
2022-08-07T21:11:50.328Z,45.30
2022-08-07T21:14:33.886Z,45.90
2022-08-07T21:18:03.508Z,46.20
2022-08-07T21:24:02.838Z,46.90
2022-08-07T21:26:55.088Z,47.00
2022-08-07T21:29:23.820Z,47.40
2022-08-07T21:32:43.712Z,47.60
2022-08-07T21:35:11.546Z,48.10
2022-08-07T21:37:58.563Z,48.30
2022-08-07T21:40:50.180Z,49.00
2022-08-07T21:43:36.763Z,49.60
2022-08-07T21:46:25.082Z,49.70
2022-08-07T21:48:58.522Z,49.80
2022-08-07T21:51:50.807Z,50.10
2022-08-07T21:55:01.835Z,51.00
2022-08-07T21:57:52.061Z,51.20
2022-08-07T22:00:25.229Z,51.40
2022-08-07T22:03:47.660Z,51.60
2022-08-07T22:06:31.004Z,52.00
2022-08-07T22:09:10.364Z,52.10
2022-08-07T22:11:53.407Z,52.40
2022-08-07T22:14:44.149Z,52.60
2022-08-07T22:17:40.457Z,52.90
2022-08-07T22:20:23.453Z,53.60
2022-08-07T22:23:10.345Z,53.60
2022-08-07T22:26:05.911Z,53.90
2022-08-07T22:28:52.941Z,54.10
2022-08-07T22:32:03.376Z,54.30
2022-08-07T22:34:53.410Z,54.80
2022-08-07T22:37:26.363Z,54.90
2022-08-07T22:41:10.651Z,54.90
2022-08-07T22:43:50.416Z,55.70
2022-08-07T22:46:46.823Z,55.70
2022-08-07T22:49:37.966Z,56.00
2022-08-07T22:52:19.572Z,55.70
2022-08-07T22:55:38.916Z,56.00
2022-08-07T22:58:21.516Z,56.60
2022-08-07T23:01:22.015Z,56.90
2022-08-07T23:04:30.161Z,57.30
2022-08-07T23:07:43.004Z,57.50
2022-08-07T23:10:43.804Z,57.70
2022-08-07T23:13:49.092Z,57.80
2022-08-07T23:16:44.727Z,58.10
2022-08-07T23:19:51.799Z,58.10
2022-08-07T23:22:53.568Z,58.40
2022-08-07T23:25:58.162Z,58.70
2022-08-07T23:28:29.145Z,58.90
2022-08-07T23:31:11.616Z,58.70
2022-08-07T23:34:33.968Z,59.30
2022-08-07T23:37:37.572Z,59.90
2022-08-07T23:40:36.243Z,59.80
2022-08-07T23:43:19.310Z,59.80
2022-08-07T23:46:02.222Z,60.30
2022-08-07T23:48:47.595Z,60.20
2022-08-07T23:52:59.451Z,60.40
2022-08-07T23:54:43.816Z,60.70
2022-08-07T23:57:22.715Z,60.90
